PILOTS ONLINE: 193    ATC ONLINE: 24

CYRL

Red Lake Airport

Location

IATA YRL
City Red Lake
Country  Canada
Latitude 51° 4' 0" N
Longitude 93° 47' 35" W
Elevation 1265 ft
Type Medium Airport

Map

Weather

METAR
2014/08/29 02:00
CYRL 290200Z 18008KT 15SM FEW015 SCT240 20/16 A2982 RMK SC2CI2 LAST STFD OBS/NEXT 290900UTC VIA CYPL SLP102 DENSITY ALT 2200FT
TAF
2014/08/28 20:00
TAF CYRL 281941Z 2820/2902 20012KT P6SM BKN040 
      RMK NXT FCST WILL BE ISSUED AT 291045Z

Runways

08/26 5000 ft / 150 ft

Outbound flights

Callsign Flying to Pilot ATD/STD ETA Aircraft

Inbound flights

Callsign Flying from Pilot ATD ETA Aircraft